Time;durP1;ratioP1;P1;durP2;ratioP2;P2;SDS_P1;SDS_P2;PMS_P1;PMS_P2;Temp;Humidity;BMP_temperature;BMP_pressure;BME280_temperature;BME280_humidity;BME280_pressure;Samples;Min_cycle;Max_cycle;Signal;HPM_P1;HPM_P2
2022/04/03 00:00:50;;;;;;;0.70;0.70;;;9.00;57.10;;;;;;4912101;29;20131;-86
2022/04/03 00:03:16;;;;;;;0.77;0.77;;;9.00;57.10;;;;;;4930273;29;20031;-86
2022/04/03 00:05:43;;;;;;;0.98;0.98;;;8.90;56.90;;;;;;4930104;29;20067;-85
2022/04/03 00:08:14;;;;;;;1.00;0.90;;;8.90;57.00;;;;;;4913678;29;20549;-85
2022/04/03 00:10:40;;;;;;;1.40;1.17;;;9.00;56.90;;;;;;4904606;29;20035;-85
2022/04/03 00:13:07;;;;;;;1.25;1.15;;;9.00;56.90;;;;;;4930452;29;20386;-86
2022/04/03 00:15:38;;;;;;;1.30;1.20;;;9.00;57.00;;;;;;4897202;29;20036;-85
2022/04/03 00:18:04;;;;;;;1.75;1.17;;;9.00;57.10;;;;;;4928942;29;20191;-83
2022/04/03 00:20:30;;;;;;;1.02;1.02;;;9.00;57.10;;;;;;4929678;29;20118;-87
2022/04/03 00:22:56;;;;;;;1.55;1.35;;;9.00;56.70;;;;;;4930319;29;20032;-86
2022/04/03 00:25:22;;;;;;;1.10;0.95;;;9.00;56.80;;;;;;4897057;29;20156;-86
2022/04/03 00:27:48;;;;;;;1.25;1.13;;;9.00;56.80;;;;;;4914994;29;20044;-82
2022/04/03 00:30:14;;;;;;;1.50;1.20;;;9.00;56.60;;;;;;4929160;29;20171;-81
2022/04/03 00:32:40;;;;;;;1.25;1.15;;;9.00;56.60;;;;;;4929507;29;20036;-85
2022/04/03 00:35:07;;;;;;;1.10;1.00;;;9.00;56.70;;;;;;4912878;29;20032;-84
2022/04/03 00:37:33;;;;;;;1.50;1.40;;;9.00;56.60;;;;;;4896490;29;20036;-84
2022/04/03 00:40:00;;;;;;;1.20;1.10;;;9.00;56.70;;;;;;4929369;29;20513;-85
2022/04/03 00:42:27;;;;;;;1.30;1.20;;;9.00;56.70;;;;;;4929253;29;20055;-82
2022/04/03 00:44:53;;;;;;;1.30;1.20;;;9.00;56.70;;;;;;4929729;29;20099;-83
2022/04/03 00:47:20;;;;;;;1.50;1.40;;;9.00;56.80;;;;;;4913338;29;20099;-83
2022/04/03 00:49:47;;;;;;;1.10;1.10;;;9.00;56.70;;;;;;4903651;29;20130;-84
2022/04/03 00:52:13;;;;;;;1.27;1.17;;;9.00;56.90;;;;;;4912374;29;20035;-82
2022/04/03 00:54:39;;;;;;;1.38;1.27;;;9.00;56.80;;;;;;4928983;29;20055;-83
2022/04/03 00:57:09;;;;;;;1.35;1.17;;;9.00;56.80;;;;;;4928002;29;20134;-80
2022/04/03 00:59:35;;;;;;;2.40;1.05;;;9.00;56.80;;;;;;4923544;29;20043;-86
2022/04/03 01:02:02;;;;;;;1.10;1.00;;;9.00;56.80;;;;;;4930328;29;20038;-83
2022/04/03 01:04:28;;;;;;;1.10;1.00;;;9.00;56.80;;;;;;4911612;29;20036;-82
2022/04/03 01:06:57;;;;;;;0.95;0.90;;;9.00;56.80;;;;;;4930145;29;20071;-83
2022/04/03 01:09:23;;;;;;;0.93;0.90;;;8.90;56.60;;;;;;4897346;29;20165;-86
2022/04/03 01:11:48;;;;;;;1.67;1.20;;;9.00;56.80;;;;;;4930354;29;20044;-83
2022/04/03 01:14:39;;;;;;;0.90;0.90;;;9.00;56.80;;;;;;4913972;29;20043;-85
2022/04/03 01:17:07;;;;;;;1.33;1.23;;;9.00;56.90;;;;;;4930512;29;20482;-84
2022/04/03 01:19:33;;;;;;;1.20;1.08;;;9.00;56.90;;;;;;4930775;29;20443;-85
2022/04/03 01:22:01;;;;;;;1.13;1.10;;;9.00;56.80;;;;;;4930484;29;20074;-84
2022/04/03 01:24:27;;;;;;;1.92;1.17;;;9.00;56.80;;;;;;4927301;29;20518;-81
2022/04/03 01:26:53;;;;;;;1.02;0.98;;;9.00;56.90;;;;;;4912350;29;20131;-81
2022/04/03 01:29:20;;;;;;;1.17;1.08;;;9.00;56.90;;;;;;4929553;29;20035;-83
2022/04/03 01:31:46;;;;;;;0.88;0.88;;;9.00;56.90;;;;;;4927969;29;20608;-83
2022/04/03 01:34:14;;;;;;;2.13;1.10;;;9.00;56.90;;;;;;4911487;29;20086;-83
2022/04/03 01:36:40;;;;;;;1.20;1.10;;;9.00;56.90;;;;;;4928855;29;20035;-83
2022/04/03 01:39:06;;;;;;;1.02;0.93;;;9.00;56.90;;;;;;4927273;29;20086;-84
2022/04/03 01:41:32;;;;;;;1.20;1.02;;;9.00;56.80;;;;;;4925402;29;20052;-81
2022/04/03 01:43:58;;;;;;;0.90;0.90;;;9.00;56.70;;;;;;4933178;29;20024;-82
2022/04/03 01:46:24;;;;;;;1.17;1.10;;;9.00;56.80;;;;;;4932841;29;20036;-82
2022/04/03 01:48:50;;;;;;;1.05;0.95;;;9.00;56.90;;;;;;4899994;29;20036;-82
2022/04/03 01:51:16;;;;;;;1.08;1.00;;;9.00;56.90;;;;;;4932596;29;20046;-82
2022/04/03 01:53:42;;;;;;;1.10;1.10;;;9.00;56.80;;;;;;4915710;29;20035;-82
2022/04/03 01:56:08;;;;;;;1.23;1.13;;;9.00;56.70;;;;;;4932513;29;20035;-83
2022/04/03 01:58:34;;;;;;;1.23;1.20;;;9.00;56.70;;;;;;4931400;29;20046;-84
2022/04/03 02:01:02;;;;;;;1.15;1.15;;;9.00;56.70;;;;;;4899083;29;20039;-82
2022/04/03 02:03:28;;;;;;;1.05;1.05;;;9.00;56.80;;;;;;4915665;29;20039;-84
2022/04/03 02:05:54;;;;;;;1.20;1.15;;;9.00;56.90;;;;;;4932003;29;20042;-85
2022/04/03 02:08:20;;;;;;;1.05;1.05;;;9.00;56.80;;;;;;4932160;29;20028;-84
2022/04/03 02:10:46;;;;;;;1.17;1.10;;;9.00;56.80;;;;;;4931704;29;20046;-85
2022/04/03 02:13:12;;;;;;;1.10;1.02;;;9.00;56.90;;;;;;4915407;29;20515;-86
2022/04/03 02:15:39;;;;;;;1.35;1.25;;;9.00;57.00;;;;;;4932312;29;20039;-86
2022/04/03 02:18:05;;;;;;;1.75;1.17;;;9.00;57.00;;;;;;4898932;29;20048;-84
2022/04/03 02:20:31;;;;;;;1.40;1.30;;;9.00;57.00;;;;;;4932114;29;20039;-84
2022/04/03 02:22:58;;;;;;;1.08;1.08;;;9.00;57.00;;;;;;4932364;29;20387;-85
2022/04/03 02:25:25;;;;;;;1.30;1.20;;;9.00;57.00;;;;;;4898838;29;20050;-83
2022/04/03 02:27:54;;;;;;;1.65;1.55;;;9.00;56.90;;;;;;4899349;29;20047;-85
2022/04/03 02:30:20;;;;;;;1.20;1.10;;;9.00;56.90;;;;;;4931972;29;20146;-83
2022/04/03 02:32:46;;;;;;;1.33;1.23;;;9.00;56.80;;;;;;4914904;29;20036;-81
2022/04/03 02:35:13;;;;;;;2.08;1.30;;;9.00;56.80;;;;;;4932015;29;20031;-83
2022/04/03 02:37:41;;;;;;;1.30;1.20;;;9.00;56.80;;;;;;4931496;29;20123;-83
2022/04/03 02:40:10;;;;;;;1.20;1.10;;;9.00;56.70;;;;;;4931428;29;20148;-84
2022/04/03 02:42:36;;;;;;;1.10;1.10;;;9.00;56.70;;;;;;4931539;29;20728;-83
2022/04/03 02:45:04;;;;;;;2.08;1.20;;;9.00;56.80;;;;;;4913918;29;20107;-82
2022/04/03 02:47:31;;;;;;;1.40;1.30;;;9.00;56.80;;;;;;4914795;29;20539;-82
2022/04/03 02:49:57;;;;;;;1.15;1.15;;;9.00;56.70;;;;;;4932208;29;20114;-83
2022/04/03 02:52:23;;;;;;;1.30;1.30;;;9.00;56.80;;;;;;4931060;29;20183;-81
2022/04/03 02:54:49;;;;;;;1.30;1.20;;;9.00;56.60;;;;;;4898480;29;20036;-81
2022/04/03 02:57:16;;;;;;;1.50;1.40;;;9.00;56.50;;;;;;4931256;29;20050;-82
2022/04/03 02:59:45;;;;;;;1.80;1.52;;;9.00;56.60;;;;;;4930711;29;20415;-81
2022/04/03 03:02:12;;;;;;;1.17;1.08;;;9.00;56.60;;;;;;4930705;29;20039;-82
2022/04/03 03:04:38;;;;;;;1.60;1.50;;;9.00;56.50;;;;;;4914860;29;20040;-82
2022/04/03 03:07:08;;;;;;;1.10;1.10;;;9.00;56.50;;;;;;4930767;29;21142;-81
2022/04/03 03:09:34;;;;;;;1.35;1.25;;;9.00;56.50;;;;;;4930225;29;20053;-81
2022/04/03 03:12:00;;;;;;;1.20;1.20;;;9.00;56.60;;;;;;4930820;29;20532;-81
2022/04/03 03:14:28;;;;;;;1.40;1.30;;;9.00;56.50;;;;;;4930518;29;20032;-82
2022/04/03 03:16:55;;;;;;;1.15;1.15;;;9.00;56.60;;;;;;4909027;29;20511;-82
2022/04/03 03:19:21;;;;;;;1.27;1.27;;;9.00;56.40;;;;;;4930460;29;20036;-80
2022/04/03 03:21:47;;;;;;;1.60;1.40;;;9.00;56.50;;;;;;4913442;29;20157;-85
2022/04/03 03:24:13;;;;;;;1.63;1.52;;;9.00;56.60;;;;;;4912486;29;20040;-81
2022/04/03 03:26:39;;;;;;;1.20;1.20;;;9.00;56.50;;;;;;4930743;29;20051;-82
2022/04/03 03:29:05;;;;;;;1.20;1.10;;;9.00;56.60;;;;;;4930957;29;20046;-81
2022/04/03 03:31:31;;;;;;;1.02;1.00;;;9.00;56.60;;;;;;4930598;29;20395;-82
2022/04/03 03:33:58;;;;;;;1.35;1.25;;;9.00;56.60;;;;;;4930626;29;20043;-82
2022/04/03 03:36:24;;;;;;;1.35;1.25;;;9.00;56.50;;;;;;4930011;29;20044;-80
2022/04/03 03:38:50;;;;;;;1.17;1.08;;;9.00;56.60;;;;;;4930701;29;20051;-81
2022/04/03 03:41:16;;;;;;;1.10;1.10;;;9.00;56.50;;;;;;4913825;29;20055;-80
2022/04/03 03:43:43;;;;;;;1.15;1.05;;;9.00;56.60;;;;;;4929847;29;20726;-81
2022/04/03 03:46:10;;;;;;;1.35;1.25;;;9.00;56.60;;;;;;4913587;29;20036;-82
2022/04/03 03:48:37;;;;;;;1.00;1.00;;;9.00;56.60;;;;;;4913404;29;20059;-81
2022/04/03 03:51:04;;;;;;;0.80;0.80;;;9.00;56.60;;;;;;4913178;29;20038;-81
2022/04/03 03:53:30;;;;;;;1.25;1.20;;;9.00;56.50;;;;;;4913262;29;20064;-81
2022/04/03 03:55:57;;;;;;;1.02;1.02;;;9.00;56.50;;;;;;4913642;29;20037;-82
2022/04/03 03:58:24;;;;;;;1.17;1.08;;;9.00;56.40;;;;;;4930299;29;20099;-82
2022/04/03 04:00:50;;;;;;;1.20;1.10;;;9.00;56.50;;;;;;4897428;29;20044;-82
2022/04/03 04:03:16;;;;;;;1.23;1.10;;;9.00;56.50;;;;;;4929784;29;20027;-82
2022/04/03 04:05:43;;;;;;;1.00;1.00;;;9.00;56.40;;;;;;4912736;29;20038;-81
2022/04/03 04:08:09;;;;;;;1.40;1.30;;;9.00;56.40;;;;;;4929554;29;20031;-81
2022/04/03 04:10:35;;;;;;;1.20;1.10;;;9.00;56.30;;;;;;4929776;29;20046;-82
2022/04/03 04:13:01;;;;;;;1.33;1.30;;;9.00;56.30;;;;;;4930245;29;20136;-81
2022/04/03 04:15:28;;;;;;;1.25;1.15;;;9.00;56.30;;;;;;4912796;29;20047;-82
2022/04/03 04:17:55;;;;;;;1.70;1.20;;;9.10;56.30;;;;;;4929310;29;20203;-82
2022/04/03 04:20:21;;;;;;;1.00;1.00;;;9.10;56.30;;;;;;4929820;29;20028;-81
2022/04/03 04:22:49;;;;;;;1.30;1.20;;;9.10;56.30;;;;;;4913178;29;20031;-82
2022/04/03 04:25:17;;;;;;;1.35;1.20;;;9.10;56.20;;;;;;4911710;29;20028;-82
2022/04/03 04:27:44;;;;;;;1.20;1.10;;;9.10;56.30;;;;;;4912192;29;20040;-82
2022/04/03 04:30:11;;;;;;;1.50;1.40;;;9.10;56.30;;;;;;4907261;29;20119;-82
2022/04/03 04:32:37;;;;;;;1.15;1.05;;;9.10;56.30;;;;;;4928179;29;20046;-82
2022/04/03 04:35:04;;;;;;;1.15;1.13;;;9.10;56.40;;;;;;4912799;29;20399;-82
2022/04/03 04:37:31;;;;;;;1.50;1.15;;;9.10;56.30;;;;;;4929554;29;20039;-85
2022/04/03 04:39:57;;;;;;;1.00;1.00;;;9.10;56.20;;;;;;4930360;29;20052;-82
2022/04/03 04:42:23;;;;;;;1.10;1.10;;;9.20;56.30;;;;;;4929805;29;20515;-82
2022/04/03 04:44:49;;;;;;;1.15;1.10;;;9.10;56.20;;;;;;4930919;29;20047;-82
2022/04/03 04:47:15;;;;;;;1.63;1.00;;;9.20;56.20;;;;;;4931131;29;20031;-83
2022/04/03 04:49:41;;;;;;;1.20;1.20;;;9.20;56.90;;;;;;4912430;29;20050;-80
2022/04/03 04:52:07;;;;;;;1.52;1.42;;;9.20;56.30;;;;;;4913265;29;20067;-84
2022/04/03 04:54:35;;;;;;;1.08;1.00;;;9.20;56.30;;;;;;4929346;29;20146;-84
2022/04/03 04:57:01;;;;;;;1.20;1.10;;;9.20;56.30;;;;;;4928281;29;20044;-82
2022/04/03 04:59:27;;;;;;;1.00;1.00;;;9.20;56.30;;;;;;4929875;29;20028;-82
2022/04/03 05:01:56;;;;;;;1.73;1.30;;;9.20;56.30;;;;;;4897085;29;20087;-85
2022/04/03 05:04:26;;;;;;;1.48;1.38;;;9.20;56.30;;;;;;4912217;29;20103;-84
2022/04/03 05:06:52;;;;;;;1.45;1.08;;;9.20;56.30;;;;;;4929278;29;20539;-85
2022/04/03 05:09:20;;;;;;;1.10;1.10;;;9.30;56.30;;;;;;4927380;29;20123;-84
2022/04/03 05:11:47;;;;;;;1.73;1.10;;;9.20;56.30;;;;;;4927406;29;20195;-82
2022/04/03 05:14:13;;;;;;;2.53;1.27;;;9.30;56.40;;;;;;4930498;29;20079;-84
2022/04/03 05:16:40;;;;;;;2.55;1.10;;;9.30;56.40;;;;;;4913460;29;20047;-82
2022/04/03 05:19:06;;;;;;;1.45;1.10;;;9.30;56.50;;;;;;4932220;29;20039;-84
2022/04/03 05:21:33;;;;;;;1.10;1.00;;;9.30;56.40;;;;;;4915280;29;20036;-85
2022/04/03 05:23:59;;;;;;;1.25;1.17;;;9.40;56.50;;;;;;4931213;29;20103;-83
2022/04/03 05:26:25;;;;;;;1.27;1.20;;;9.40;56.50;;;;;;4880752;29;20040;-83
2022/04/03 05:28:51;;;;;;;1.38;1.00;;;9.40;56.50;;;;;;4932689;29;20040;-86
2022/04/03 05:31:17;;;;;;;2.08;0.90;;;9.40;56.50;;;;;;4931873;29;20070;-86
2022/04/03 05:33:43;;;;;;;1.30;1.20;;;9.40;56.50;;;;;;4919660;29;20148;-88
2022/04/03 05:36:09;;;;;;;3.00;1.58;;;9.40;56.40;;;;;;4934842;29;20508;-86
2022/04/03 05:38:35;;;;;;;0.90;0.90;;;9.50;56.50;;;;;;4923007;29;20039;-90
2022/04/03 05:41:01;;;;;;;1.50;1.40;;;9.50;57.00;;;;;;4915381;29;20055;-84
2022/04/03 05:43:27;;;;;;;1.17;1.02;;;9.50;57.60;;;;;;4932916;29;20075;-83
2022/04/03 05:45:53;;;;;;;3.35;0.80;;;9.50;58.10;;;;;;4933801;29;20040;-89
2022/04/03 05:48:19;;;;;;;1.20;1.10;;;9.50;58.40;;;;;;4923028;29;20550;-90
2022/04/03 05:50:45;;;;;;;1.95;1.02;;;9.60;58.60;;;;;;4935565;29;20130;-87
2022/04/03 05:53:12;;;;;;;0.90;0.90;;;9.60;58.70;;;;;;4919972;29;20512;-89
2022/04/03 05:55:38;;;;;;;1.10;1.00;;;9.60;58.90;;;;;;4934365;29;20442;-92
2022/04/03 05:58:04;;;;;;;1.95;1.00;;;9.60;59.10;;;;;;4935260;29;20114;-88
2022/04/03 06:00:31;;;;;;;0.98;0.90;;;9.70;59.10;;;;;;4937446;29;20076;-89
2022/04/03 06:03:00;;;;;;;1.52;0.80;;;9.70;59.20;;;;;;4936563;29;20031;-86
2022/04/03 06:05:28;;;;;;;1.23;0.80;;;9.70;59.80;;;;;;4915992;29;20063;-87
2022/04/03 06:07:54;;;;;;;2.38;1.20;;;9.70;59.70;;;;;;4933637;29;20043;-89
2022/04/03 06:10:22;;;;;;;0.80;0.80;;;9.70;59.10;;;;;;4932525;29;20091;-91
2022/04/03 06:13:14;;;;;;;1.35;1.00;;;9.70;59.20;;;;;;4931731;29;20476;-88
2022/04/03 06:15:43;;;;;;;1.17;1.08;;;9.70;59.20;;;;;;4927414;29;20499;-79
2022/04/03 06:18:12;;;;;;;0.90;0.90;;;9.80;59.10;;;;;;4899322;29;20087;-80
2022/04/03 06:20:39;;;;;;;1.15;0.95;;;9.80;59.10;;;;;;4914423;29;20432;-80
2022/04/03 06:23:13;;;;;;;1.17;1.08;;;9.80;59.30;;;;;;4897056;29;20697;-80
2022/04/03 06:25:39;;;;;;;1.30;1.20;;;9.80;59.40;;;;;;4930477;29;20035;-78
2022/04/03 06:28:05;;;;;;;1.65;1.00;;;9.80;59.60;;;;;;4930996;29;20652;-80
2022/04/03 06:30:31;;;;;;;1.25;1.10;;;9.80;59.70;;;;;;4914338;29;20035;-80
2022/04/03 06:32:57;;;;;;;1.30;1.00;;;9.90;60.00;;;;;;4914237;29;20047;-81
2022/04/03 06:35:23;;;;;;;1.17;1.00;;;9.90;60.00;;;;;;4913672;29;20036;-81
2022/04/03 06:37:49;;;;;;;1.40;1.30;;;9.90;60.10;;;;;;4914687;29;20392;-80
2022/04/03 06:40:16;;;;;;;2.90;1.23;;;9.90;60.40;;;;;;4931346;29;20066;-80
2022/04/03 06:42:43;;;;;;;1.92;1.83;;;9.90;59.40;;;;;;4913575;29;20069;-79
2022/04/03 06:45:10;;;;;;;1.80;1.70;;;9.90;57.30;;;;;;4931190;29;20028;-78
2022/04/03 06:47:36;;;;;;;1.75;1.65;;;9.80;56.40;;;;;;4931442;29;20028;-79
2022/04/03 06:50:04;;;;;;;2.45;1.50;;;9.70;55.90;;;;;;4883481;29;20083;-79
2022/04/03 06:52:30;;;;;;;1.55;1.45;;;9.60;55.30;;;;;;4913976;29;20035;-79
2022/04/03 06:54:56;;;;;;;1.80;1.67;;;9.60;55.50;;;;;;4929523;29;20558;-79
2022/04/03 06:57:22;;;;;;;3.95;1.90;;;9.50;55.00;;;;;;4930936;29;20150;-77
2022/04/03 06:59:48;;;;;;;1.80;1.70;;;9.40;54.70;;;;;;4912543;29;20086;-79
2022/04/03 07:02:14;;;;;;;2.28;1.58;;;9.30;55.00;;;;;;4930360;29;20066;-78
2022/04/03 07:04:40;;;;;;;2.10;1.85;;;9.30;56.00;;;;;;4930426;29;20126;-79
2022/04/03 07:07:06;;;;;;;1.83;1.73;;;9.20;56.30;;;;;;4895484;29;20509;-80
2022/04/03 07:09:32;;;;;;;2.45;2.13;;;9.20;55.90;;;;;;4912524;29;20118;-80
2022/04/03 07:11:58;;;;;;;1.98;1.85;;;9.10;56.00;;;;;;4897668;29;20506;-79
2022/04/03 07:14:25;;;;;;;2.05;1.85;;;9.10;55.90;;;;;;4910968;29;20040;-79
2022/04/03 07:16:51;;;;;;;3.35;1.75;;;9.00;55.90;;;;;;4897898;29;20431;-84
2022/04/03 07:19:17;;;;;;;2.17;1.85;;;9.00;55.70;;;;;;4931084;29;20106;-80
2022/04/03 07:21:43;;;;;;;1.90;1.80;;;9.00;55.70;;;;;;4930088;29;20031;-79
2022/04/03 07:24:09;;;;;;;2.00;1.90;;;8.90;55.90;;;;;;4929903;29;20083;-80
2022/04/03 07:26:36;;;;;;;2.08;1.88;;;8.90;55.60;;;;;;4930602;29;20031;-83
2022/04/03 07:29:02;;;;;;;2.22;1.80;;;8.80;55.70;;;;;;4930543;29;20130;-85
2022/04/03 07:31:28;;;;;;;3.75;1.88;;;8.80;55.20;;;;;;4930361;29;20142;-84
2022/04/03 07:33:55;;;;;;;2.15;1.95;;;8.70;55.20;;;;;;4929116;29;20173;-89
2022/04/03 07:36:21;;;;;;;2.35;1.90;;;8.70;55.50;;;;;;4913215;29;20074;-80
2022/04/03 07:38:47;;;;;;;1.95;1.73;;;8.70;57.40;;;;;;4915527;29;20146;-80
2022/04/03 07:41:13;;;;;;;2.38;2.08;;;8.70;58.40;;;;;;4929096;29;20130;-82
2022/04/03 07:43:39;;;;;;;2.80;1.92;;;8.80;58.70;;;;;;4896594;29;20090;-80
2022/04/03 07:46:05;;;;;;;2.28;2.08;;;8.90;59.10;;;;;;4900702;29;20520;-80
2022/04/03 07:48:31;;;;;;;3.67;2.03;;;8.90;59.30;;;;;;4911854;29;20031;-80
2022/04/03 07:50:57;;;;;;;4.28;2.22;;;9.00;59.50;;;;;;4928671;29;20066;-81
2022/04/03 07:53:23;;;;;;;2.83;2.13;;;9.10;59.70;;;;;;4912013;29;20027;-79
2022/04/03 07:55:49;;;;;;;2.63;2.10;;;9.10;59.90;;;;;;4929172;29;20066;-80
2022/04/03 07:58:15;;;;;;;4.07;2.13;;;9.20;60.20;;;;;;4928532;29;20036;-78
2022/04/03 08:00:41;;;;;;;2.38;2.00;;;9.20;60.20;;;;;;4928918;29;20063;-80
2022/04/03 08:03:07;;;;;;;2.13;1.80;;;9.30;60.10;;;;;;4929439;29;20040;-80
2022/04/03 08:05:34;;;;;;;3.50;2.20;;;9.30;59.90;;;;;;4929355;29;20040;-81
2022/04/03 08:07:59;;;;;;;2.70;2.22;;;9.40;59.70;;;;;;4912501;29;20408;-81
2022/04/03 08:10:25;;;;;;;4.88;2.10;;;9.40;59.60;;;;;;4928022;29;20054;-81
2022/04/03 08:12:51;;;;;;;2.28;2.00;;;9.40;59.40;;;;;;4897041;29;20075;-84
2022/04/03 08:15:20;;;;;;;2.70;2.38;;;9.50;59.30;;;;;;4933065;29;20111;-90
2022/04/03 08:17:47;;;;;;;5.25;2.63;;;9.50;59.30;;;;;;4934379;29;20038;-82
2022/04/03 08:20:16;;;;;;;4.75;2.33;;;9.60;59.70;;;;;;4912861;29;20495;-82
2022/04/03 08:22:43;;;;;;;2.72;2.53;;;9.60;60.00;;;;;;4911110;29;21409;-83
2022/04/03 08:25:12;;;;;;;4.68;2.38;;;9.70;60.40;;;;;;4896137;29;20126;-83
2022/04/03 08:27:45;;;;;;;3.67;2.58;;;9.70;60.80;;;;;;4910411;29;20091;-83
2022/04/03 08:30:18;;;;;;;6.13;2.75;;;9.70;61.00;;;;;;4927279;29;20040;-83
2022/04/03 08:32:44;;;;;;;3.85;2.72;;;9.70;61.00;;;;;;4926476;29;20062;-81
2022/04/03 08:35:12;;;;;;;3.85;2.60;;;9.80;60.70;;;;;;4896948;29;20039;-82
2022/04/03 08:37:39;;;;;;;4.78;3.15;;;9.80;60.70;;;;;;4928443;29;20043;-82
2022/04/03 08:40:06;;;;;;;4.05;2.60;;;9.80;60.40;;;;;;4895293;29;20052;-81
2022/04/03 08:42:34;;;;;;;3.13;2.30;;;9.90;60.30;;;;;;4928884;29;20031;-81
2022/04/03 08:45:00;;;;;;;4.75;2.40;;;9.90;60.20;;;;;;4910701;29;20042;-79
2022/04/03 08:47:27;;;;;;;4.07;2.65;;;9.90;60.00;;;;;;4910813;29;20075;-81
2022/04/03 08:49:59;;;;;;;4.72;2.55;;;10.00;59.80;;;;;;4928059;29;20039;-81
2022/04/03 08:52:27;;;;;;;3.53;2.58;;;10.00;59.80;;;;;;4910641;29;20044;-80
2022/04/03 08:54:53;;;;;;;2.90;2.45;;;10.00;59.70;;;;;;4928531;29;20046;-80
2022/04/03 08:57:20;;;;;;;4.97;2.50;;;10.00;59.60;;;;;;4913999;29;20081;-80
2022/04/03 08:59:46;;;;;;;2.85;2.55;;;10.10;59.70;;;;;;4914738;29;20522;-79
2022/04/03 09:02:15;;;;;;;3.42;2.67;;;10.10;59.60;;;;;;4928741;29;20035;-80
2022/04/03 09:04:40;;;;;;;4.07;3.05;;;10.10;59.60;;;;;;4908197;29;20820;-82
2022/04/03 09:07:07;;;;;;;5.32;2.80;;;10.20;59.20;;;;;;4911081;29;20046;-84
2022/04/03 09:09:32;;;;;;;4.35;2.50;;;10.20;59.10;;;;;;4887464;29;20529;-83
2022/04/03 09:12:13;;;;;;;4.97;2.72;;;10.20;59.10;;;;;;4910204;29;20043;-84
2022/04/03 09:14:47;;;;;;;3.90;2.80;;;10.30;59.20;;;;;;4928050;29;20047;-82
2022/04/03 09:17:32;;;;;;;3.67;2.72;;;10.30;59.20;;;;;;4896663;29;20466;-82
2022/04/03 09:20:05;;;;;;;3.33;2.97;;;10.30;59.00;;;;;;4929408;29;20459;-82
2022/04/03 09:22:35;;;;;;;5.10;2.60;;;10.40;59.00;;;;;;4895321;29;20040;-82
2022/04/03 09:25:10;;;;;;;2.85;2.55;;;10.40;58.90;;;;;;4927154;29;20038;-82
2022/04/03 09:27:48;;;;;;;7.72;3.05;;;10.40;58.80;;;;;;4928203;29;20543;-82
2022/04/03 09:30:15;;;;;;;3.13;2.83;;;10.40;58.70;;;;;;4928599;29;20063;-83
2022/04/03 09:32:55;;;;;;;3.90;3.00;;;10.50;58.40;;;;;;4928129;29;20051;-82
2022/04/03 09:35:26;;;;;;;3.83;2.67;;;10.50;58.30;;;;;;4910846;29;20126;-82
2022/04/03 09:38:13;;;;;;;3.70;2.50;;;10.50;58.00;;;;;;4911488;29;20035;-82
2022/04/03 09:40:43;;;;;;;;;;;10.60;57.90;;;;;;4910941;29;20051;-82
2022/04/03 09:43:19;;;;;;;3.15;2.72;;;10.60;57.80;;;;;;4928072;29;20382;-82
2022/04/03 09:45:54;;;;;;;3.30;1.98;;;10.60;57.80;;;;;;4879890;29;21174;-82
2022/04/03 09:48:28;;;;;;;2.60;2.40;;;10.70;57.90;;;;;;4911452;29;20562;-82
2022/04/03 09:51:11;;;;;;;4.18;2.90;;;10.70;57.80;;;;;;4912211;29;20035;-83
2022/04/03 09:53:50;;;;;;;2.95;2.50;;;10.70;57.70;;;;;;4927965;29;20047;-82
2022/04/03 09:56:25;;;;;;;2.50;2.08;;;10.70;57.50;;;;;;4895421;29;20479;-82
2022/04/03 09:58:50;;;;;;;3.47;2.70;;;10.70;57.40;;;;;;4927183;29;20131;-81
2022/04/03 10:01:28;;;;;;;3.90;2.25;;;10.80;57.30;;;;;;4912484;29;20130;-82
2022/04/03 10:03:54;;;;;;;3.30;2.50;;;10.80;57.20;;;;;;4931924;29;20042;-82
2022/04/03 10:06:21;;;;;;;3.40;2.17;;;10.80;57.00;;;;;;4931459;29;20122;-82
2022/04/03 10:08:48;;;;;;;2.60;2.35;;;10.80;56.90;;;;;;4911028;29;20032;-82
2022/04/03 10:11:15;;;;;;;3.53;2.40;;;10.90;56.90;;;;;;4931679;29;20034;-83
2022/04/03 10:13:43;;;;;;;2.25;1.92;;;10.90;57.30;;;;;;4914330;29;20035;-83
2022/04/03 10:16:13;;;;;;;2.20;2.00;;;10.90;56.80;;;;;;4914216;29;20424;-82
2022/04/03 10:18:46;;;;;;;3.15;2.30;;;10.90;56.70;;;;;;4894007;29;20127;-82
2022/04/03 10:21:42;;;;;;;4.00;2.35;;;11.00;56.70;;;;;;4910177;29;20412;-82
2022/04/03 10:24:25;;;;;;;2.83;2.17;;;11.00;56.60;;;;;;4914281;29;20096;-82
2022/04/03 10:27:04;;;;;;;4.30;2.03;;;11.00;56.50;;;;;;4910581;29;20039;-82
2022/04/03 10:29:37;;;;;;;2.63;2.28;;;11.00;56.40;;;;;;4930837;29;20082;-81
2022/04/03 10:32:04;;;;;;;2.88;2.10;;;11.00;56.40;;;;;;4914403;29;20031;-81
2022/04/03 10:34:43;;;;;;;2.63;1.90;;;11.00;56.30;;;;;;4909317;29;20507;-81
2022/04/03 10:37:31;;;;;;;2.30;2.10;;;11.10;56.50;;;;;;4898107;29;20040;-81
2022/04/03 10:40:07;;;;;;;2.13;1.92;;;11.10;56.40;;;;;;4897583;29;20047;-83
2022/04/03 10:42:33;;;;;;;2.65;1.95;;;11.10;56.40;;;;;;4913042;29;20078;-82
2022/04/03 10:45:11;;;;;;;2.30;2.05;;;11.10;56.50;;;;;;4921531;29;20071;-81
2022/04/03 10:47:44;;;;;;;1.60;1.50;;;11.10;56.70;;;;;;4913394;29;20028;-81
2022/04/03 10:50:21;;;;;;;2.65;2.03;;;11.20;56.90;;;;;;4930247;29;20028;-82
2022/04/03 10:52:54;;;;;;;2.13;1.88;;;11.20;57.00;;;;;;4913810;29;20027;-82
2022/04/03 10:55:28;;;;;;;2.72;2.05;;;11.20;57.00;;;;;;4925964;29;20031;-82
2022/04/03 10:58:04;;;;;;;2.80;2.17;;;11.30;56.90;;;;;;4913979;29;20624;-82
2022/04/03 11:00:32;;;;;;;2.78;2.10;;;11.30;56.80;;;;;;4910078;29;20106;-83
2022/04/03 11:03:00;;;;;;;2.42;1.95;;;11.30;56.70;;;;;;4913560;29;20056;-83
2022/04/03 11:05:28;;;;;;;1.73;1.63;;;11.30;56.50;;;;;;4912700;29;20082;-86
2022/04/03 11:08:01;;;;;;;2.25;1.90;;;11.30;56.50;;;;;;4914658;29;20052;-84
2022/04/03 11:10:48;;;;;;;2.10;1.90;;;11.40;56.40;;;;;;4897116;29;20527;-83
2022/04/03 11:13:17;;;;;;;2.10;1.90;;;11.40;56.30;;;;;;4896514;29;20044;-83
2022/04/03 11:16:07;;;;;;;2.63;1.90;;;11.40;56.20;;;;;;4885141;29;20523;-83
2022/04/03 11:18:47;;;;;;;1.88;1.70;;;11.40;56.30;;;;;;4913166;29;20047;-83
2022/04/03 11:21:33;;;;;;;3.80;2.08;;;11.40;56.30;;;;;;4931383;29;20039;-82
2022/04/03 11:24:10;;;;;;;3.63;1.50;;;11.40;56.30;;;;;;4908450;29;20036;-83
2022/04/03 11:26:38;;;;;;;2.25;1.70;;;11.40;56.30;;;;;;4930759;29;20175;-83
2022/04/03 11:29:05;;;;;;;2.03;1.50;;;11.50;56.40;;;;;;4930977;29;20126;-82
2022/04/03 11:31:33;;;;;;;2.20;1.77;;;11.50;56.30;;;;;;4872610;29;20035;-84
2022/04/03 11:33:59;;;;;;;2.25;2.00;;;11.50;56.20;;;;;;4906055;29;20403;-82
2022/04/03 11:36:32;;;;;;;3.17;1.85;;;11.50;56.20;;;;;;4912964;29;20043;-81
2022/04/03 11:39:00;;;;;;;4.00;2.20;;;11.50;56.60;;;;;;4929767;29;20032;-81
2022/04/03 11:41:34;;;;;;;1.75;1.65;;;11.50;56.10;;;;;;4912341;29;20511;-81
2022/04/03 11:44:02;;;;;;;2.17;1.92;;;11.50;56.00;;;;;;4913986;29;20052;-81
2022/04/03 11:46:36;;;;;;;2.03;1.73;;;11.60;56.10;;;;;;4931532;29;20677;-82
2022/04/03 11:49:11;;;;;;;2.17;1.50;;;11.60;56.20;;;;;;4897439;29;20415;-82
2022/04/03 11:51:38;;;;;;;2.17;2.00;;;11.60;56.20;;;;;;4867800;29;20356;-83
2022/04/03 11:54:04;;;;;;;2.05;1.75;;;11.60;56.20;;;;;;4928482;29;20043;-82
2022/04/03 11:56:35;;;;;;;2.00;1.80;;;11.60;56.10;;;;;;4908852;29;20031;-81
2022/04/03 11:59:03;;;;;;;3.97;2.17;;;11.60;56.00;;;;;;4912490;29;20027;-82
2022/04/03 12:01:38;;;;;;;3.03;1.65;;;11.60;56.00;;;;;;4929606;29;20044;-81
2022/04/03 12:04:08;;;;;;;2.40;1.67;;;11.70;56.00;;;;;;4910474;29;20455;-84
2022/04/03 12:06:43;;;;;;;2.08;1.80;;;11.60;56.00;;;;;;4889086;29;20063;-81
2022/04/03 12:09:11;;;;;;;2.83;1.90;;;11.70;55.80;;;;;;4896683;29;20086;-81
2022/04/03 12:11:39;;;;;;;4.10;2.10;;;11.60;52.60;;;;;;4881005;29;20054;-81
2022/04/03 12:14:07;;;;;;;4.53;2.33;;;11.60;50.70;;;;;;4929271;29;20408;-80
2022/04/03 12:16:38;;;;;;;6.38;2.28;;;11.50;49.70;;;;;;4888101;29;20039;-80
2022/04/03 12:19:09;;;;;;;3.20;2.20;;;11.40;49.10;;;;;;4895984;29;20043;-79
2022/04/03 12:21:44;;;;;;;4.05;2.60;;;11.30;48.60;;;;;;4896967;29;20095;-81
2022/04/03 12:24:14;;;;;;;;;;;11.30;48.80;;;;;;4929318;29;20036;-82
2022/04/03 12:26:50;;;;;;;3.75;1.90;;;11.20;48.60;;;;;;4912765;29;19961;-83
2022/04/03 12:29:17;;;;;;;4.63;2.80;;;11.20;48.50;;;;;;4928998;29;20039;-82
2022/04/03 12:31:54;;;;;;;4.53;2.50;;;11.10;48.20;;;;;;4880375;29;20184;-81
2022/04/03 12:34:21;;;;;;;2.55;2.20;;;11.00;48.40;;;;;;4924214;29;20035;-83
2022/04/03 12:36:50;;;;;;;3.25;2.22;;;11.00;48.80;;;;;;4896521;29;20131;-81
2022/04/03 12:39:39;;;;;;;7.85;2.53;;;11.00;48.40;;;;;;4911424;29;20031;-81
2022/04/03 12:42:31;;;;;;;3.22;2.55;;;10.90;48.20;;;;;;4911609;29;20530;-83
2022/04/03 12:45:11;;;;;;;3.92;2.58;;;10.80;48.00;;;;;;4927979;29;20062;-83
2022/04/03 12:47:39;;;;;;;5.35;2.45;;;10.80;47.90;;;;;;4911969;29;20034;-81
2022/04/03 12:50:08;;;;;;;3.20;2.35;;;10.70;48.10;;;;;;4928562;29;20040;-81
2022/04/03 12:52:56;;;;;;;3.78;2.50;;;10.70;47.90;;;;;;4896679;29;20063;-81
2022/04/03 12:55:26;;;;;;;6.40;2.40;;;10.60;47.60;;;;;;4928498;29;20090;-82
2022/04/03 13:00:42;;;;;;;2.78;1.95;;;10.60;46.90;;;;;;4911211;29;20043;-82
2022/04/03 13:03:08;;;;;;;3.72;2.40;;;10.60;46.60;;;;;;4911343;29;20032;-81
2022/04/03 13:05:34;;;;;;;3.72;2.50;;;10.50;46.40;;;;;;4911423;29;20107;-83